METAR Data
IDs: Format: Raw Decoded Include TAF

Data at: 0147 UTC 01 Mar 2021

EIWF 282030Z 07007KT CAVOK 04/02 Q1034